Time;durP1;ratioP1;P1;durP2;ratioP2;P2;SDS_P1;SDS_P2;PMS_P1;PMS_P2;Temp;Humidity;BMP_temperature;BMP_pressure;BME280_temperature;BME280_humidity;BME280_pressure;Samples;Min_cycle;Max_cycle;Signal;HPM_P1;HPM_P2
2022/07/16 00:02:21;;;;;;;4.10;3.40;;;15.90;99.90;;;;;;5092724;28;20286;-64
2022/07/16 00:04:50;;;;;;;3.97;3.50;;;15.90;99.90;;;;;;5103388;28;20673;-63
2022/07/16 00:07:16;;;;;;;4.57;3.80;;;15.90;99.90;;;;;;5113355;28;20214;-62
2022/07/16 00:09:43;;;;;;;5.40;3.90;;;15.90;99.90;;;;;;5111125;28;20290;-63
2022/07/16 00:12:10;;;;;;;5.40;3.67;;;15.90;99.90;;;;;;5096315;28;20290;-64
2022/07/16 00:14:37;;;;;;;6.67;3.70;;;16.00;99.90;;;;;;5092361;28;20713;-64
2022/07/16 00:17:05;;;;;;;4.40;3.80;;;15.90;99.90;;;;;;5092772;28;20208;-63
2022/07/16 00:19:31;;;;;;;4.50;3.70;;;15.90;99.90;;;;;;5092652;28;20278;-63
2022/07/16 00:21:59;;;;;;;4.30;3.90;;;15.80;99.90;;;;;;5092214;28;20519;-63
2022/07/16 00:24:26;;;;;;;7.27;3.87;;;15.80;99.90;;;;;;5092221;28;20243;-64
2022/07/16 00:26:54;;;;;;;5.73;3.80;;;15.80;99.90;;;;;;5092592;28;20551;-64
2022/07/16 00:29:21;;;;;;;4.70;3.70;;;15.70;99.90;;;;;;5092660;28;20687;-63
2022/07/16 00:31:50;;;;;;;9.33;4.00;;;15.70;99.90;;;;;;5091926;28;20212;-64
2022/07/16 00:34:17;;;;;;;4.80;3.70;;;15.70;99.90;;;;;;5101855;28;20207;-63
2022/07/16 00:36:44;;;;;;;7.57;3.90;;;15.70;99.90;;;;;;5108234;28;20645;-64
2022/07/16 02:52:01;;;;;;;5.47;3.20;;;15.00;99.90;;;;;;5171040;27;20892;-65
2022/07/16 03:07:48;;;;;;;9.13;3.50;;;15.80;99.90;;;;;;5127768;27;20532;-67
2022/07/16 03:10:15;;;;;;;3.77;2.90;;;16.40;99.90;;;;;;5110548;27;20542;-68
2022/07/16 03:12:42;;;;;;;3.40;3.10;;;16.50;99.90;;;;;;5109502;28;20300;-66
2022/07/16 03:15:12;;;;;;;4.97;3.10;;;16.50;99.90;;;;;;5109343;28;20736;-67
2022/07/16 03:17:39;;;;;;;6.90;3.30;;;16.50;99.90;;;;;;5112718;28;20702;-67
2022/07/16 03:20:07;;;;;;;3.30;3.00;;;16.50;99.90;;;;;;5129800;27;20204;-67
2022/07/16 03:22:34;;;;;;;4.80;2.70;;;16.60;99.90;;;;;;5129535;27;20252;-67
2022/07/16 03:25:02;;;;;;;5.73;2.97;;;16.60;99.90;;;;;;5129772;27;20289;-67
2022/07/16 03:27:29;;;;;;;3.93;3.20;;;16.60;99.90;;;;;;5128147;27;20545;-67
2022/07/16 03:29:56;;;;;;;4.43;3.47;;;16.60;99.90;;;;;;5129617;27;20695;-67
2022/07/16 03:32:22;;;;;;;4.17;3.43;;;16.60;99.90;;;;;;5129105;27;20250;-67
2022/07/16 03:34:49;;;;;;;4.00;3.30;;;16.60;99.90;;;;;;5127754;27;20286;-68
2022/07/16 03:37:16;;;;;;;8.43;4.63;;;16.50;99.90;;;;;;5128885;27;20228;-66
2022/07/16 03:39:43;;;;;;;7.00;3.70;;;16.60;99.90;;;;;;5129463;27;20205;-68
2022/07/16 03:42:12;;;;;;;5.67;4.00;;;16.60;99.90;;;;;;5128956;27;20211;-67
2022/07/16 03:44:38;;;;;;;3.47;3.10;;;16.60;99.90;;;;;;5123685;27;20254;-66
2022/07/16 03:47:05;;;;;;;4.43;3.20;;;16.60;99.90;;;;;;5108819;28;20300;-67
2022/07/16 03:49:32;;;;;;;4.50;3.00;;;16.70;99.90;;;;;;5109021;28;20216;-68
2022/07/16 03:51:59;;;;;;;3.00;2.70;;;16.70;99.90;;;;;;5108752;28;20689;-66
2022/07/16 03:54:26;;;;;;;5.63;3.63;;;16.70;99.90;;;;;;5109828;28;20501;-67
2022/07/16 03:56:53;;;;;;;6.13;3.33;;;16.80;99.90;;;;;;5128692;27;20693;-67
2022/07/16 03:59:21;;;;;;;5.43;3.23;;;16.80;99.90;;;;;;5128592;27;20227;-68
2022/07/16 04:01:48;;;;;;;7.53;3.50;;;16.90;99.90;;;;;;5128755;27;20286;-67
2022/07/16 04:04:15;;;;;;;7.93;3.17;;;16.90;99.90;;;;;;5126688;27;20576;-68
2022/07/16 04:06:42;;;;;;;6.17;3.20;;;17.00;99.90;;;;;;5125671;27;20229;-70
2022/07/16 04:09:09;;;;;;;4.03;3.33;;;17.10;99.90;;;;;;5114841;28;20643;-67
2022/07/16 04:11:36;;;;;;;5.53;3.27;;;17.10;99.90;;;;;;5104037;28;20210;-68
2022/07/16 04:14:03;;;;;;;9.73;3.47;;;17.10;99.90;;;;;;5094527;28;20662;-67
2022/07/16 04:16:31;;;;;;;4.93;3.43;;;17.20;99.90;;;;;;5093999;28;20696;-68
2022/07/16 04:18:58;;;;;;;3.90;3.10;;;17.20;99.90;;;;;;5094632;28;20700;-67
2022/07/16 04:21:25;;;;;;;6.63;3.33;;;17.20;99.90;;;;;;5093911;28;20274;-67
2022/07/16 04:23:51;;;;;;;6.93;3.27;;;17.20;99.90;;;;;;5097793;28;20294;-68
2022/07/16 04:26:18;;;;;;;6.10;3.60;;;17.30;99.90;;;;;;5114297;28;20716;-67
2022/07/16 04:28:45;;;;;;;5.07;3.80;;;17.40;99.90;;;;;;5093817;27;20248;-68
2022/07/16 04:31:12;;;;;;;5.93;3.93;;;17.40;99.90;;;;;;5098660;28;20203;-68
2022/07/16 04:33:40;;;;;;;6.37;3.60;;;17.50;99.90;;;;;;5102979;28;20206;-67
2022/07/16 04:36:08;;;;;;;5.80;3.80;;;17.60;99.90;;;;;;5098701;28;20254;-68
2022/07/16 04:38:35;;;;;;;6.50;4.03;;;17.60;99.90;;;;;;5103508;28;20203;-67
2022/07/16 04:41:02;;;;;;;8.03;4.10;;;17.70;99.90;;;;;;5103366;28;20198;-68
2022/07/16 04:43:29;;;;;;;5.47;3.53;;;17.70;99.90;;;;;;5103357;27;20230;-67
2022/07/16 04:45:56;;;;;;;6.87;3.90;;;17.80;99.90;;;;;;5102537;28;20276;-67
2022/07/16 04:48:23;;;;;;;6.43;3.97;;;17.90;99.90;;;;;;5098709;28;20210;-68
2022/07/16 04:50:51;;;;;;;6.17;4.03;;;18.00;99.90;;;;;;5109730;28;20252;-68
2022/07/16 04:53:18;;;;;;;5.87;3.40;;;18.00;99.90;;;;;;5113724;28;20296;-67
2022/07/16 04:55:45;;;;;;;5.70;3.20;;;18.00;99.90;;;;;;5101556;28;20671;-68
2022/07/16 04:58:12;;;;;;;4.43;3.47;;;18.00;99.90;;;;;;5093725;28;20632;-67
2022/07/16 05:00:39;;;;;;;6.57;2.90;;;18.00;99.90;;;;;;5098687;28;20203;-67
2022/07/16 05:03:07;;;;;;;5.30;3.20;;;18.00;99.90;;;;;;5103482;28;20643;-68
2022/07/16 05:05:35;;;;;;;4.87;3.20;;;18.00;99.90;;;;;;5101557;28;20727;-67
2022/07/16 05:08:06;;;;;;;5.47;3.87;;;18.10;99.90;;;;;;5101648;28;20604;-67
2022/07/16 05:10:33;;;;;;;8.73;3.77;;;18.10;99.90;;;;;;5092585;28;20275;-68
2022/07/16 05:13:02;;;;;;;6.43;3.43;;;18.20;99.90;;;;;;5091968;28;20251;-67
2022/07/16 05:15:30;;;;;;;5.37;3.23;;;18.20;99.90;;;;;;5091609;28;20205;-68
2022/07/16 05:17:57;;;;;;;5.90;3.40;;;18.20;99.90;;;;;;5091784;28;20245;-68
2022/07/16 05:20:24;;;;;;;6.93;3.73;;;18.30;99.90;;;;;;5090382;28;20625;-67
2022/07/16 05:22:51;;;;;;;4.33;3.20;;;18.30;99.90;;;;;;5097953;28;20640;-67
2022/07/16 05:25:19;;;;;;;4.23;3.30;;;18.30;99.90;;;;;;5102273;28;20571;-67
2022/07/16 05:27:46;;;;;;;6.23;4.07;;;18.40;99.90;;;;;;5106340;28;20227;-67
2022/07/16 05:30:14;;;;;;;4.30;3.60;;;18.40;99.90;;;;;;5111355;27;20207;-65
2022/07/16 05:32:41;;;;;;;8.70;3.07;;;18.50;99.90;;;;;;5099890;28;20229;-69
2022/07/16 05:35:09;;;;;;;5.00;3.57;;;18.40;99.90;;;;;;5103176;28;20288;-67
2022/07/16 05:37:36;;;;;;;5.47;3.20;;;18.60;99.90;;;;;;5092858;28;20230;-68
2022/07/16 05:40:04;;;;;;;4.83;3.20;;;18.70;99.90;;;;;;5092660;28;20307;-69
2022/07/16 05:42:32;;;;;;;6.43;2.93;;;18.80;99.90;;;;;;5092558;28;20293;-67
2022/07/16 05:44:59;;;;;;;4.93;2.73;;;18.90;99.90;;;;;;5090718;28;20205;-67
2022/07/16 05:47:26;;;;;;;6.03;2.73;;;18.90;99.90;;;;;;5106084;28;20787;-67
2022/07/16 05:49:53;;;;;;;5.57;2.90;;;18.90;99.90;;;;;;5092686;28;20236;-69
2022/07/16 05:52:20;;;;;;;4.80;3.10;;;19.00;99.90;;;;;;5092994;28;20210;-68
2022/07/16 05:54:46;;;;;;;3.97;2.60;;;19.10;99.90;;;;;;5092849;28;20661;-68
2022/07/16 05:57:13;;;;;;;4.40;2.70;;;19.20;99.90;;;;;;5092158;28;20226;-69
2022/07/16 05:59:41;;;;;;;6.53;3.13;;;19.30;99.90;;;;;;5094804;28;20724;-67
2022/07/16 06:02:08;;;;;;;6.57;2.80;;;19.40;99.90;;;;;;5112554;28;20242;-67
2022/07/16 06:04:35;;;;;;;5.03;2.93;;;19.50;99.90;;;;;;5112987;28;20672;-67
2022/07/16 06:07:02;;;;;;;4.83;2.50;;;19.50;99.90;;;;;;5093088;28;20323;-67
2022/07/16 06:09:29;;;;;;;4.07;3.07;;;19.50;99.90;;;;;;5092359;28;20207;-68
2022/07/16 06:11:56;;;;;;;5.13;3.13;;;19.60;99.90;;;;;;5092392;28;20276;-68
2022/07/16 06:14:23;;;;;;;6.20;3.03;;;19.70;99.90;;;;;;5092180;28;20253;-68
2022/07/16 06:16:51;;;;;;;3.23;2.50;;;19.70;99.90;;;;;;5091782;28;20224;-67
2022/07/16 06:19:18;;;;;;;4.20;2.70;;;19.80;99.90;;;;;;5091969;28;20298;-67
2022/07/16 06:21:45;;;;;;;4.87;2.80;;;19.90;99.90;;;;;;5091841;28;20203;-69
2022/07/16 06:24:12;;;;;;;3.60;2.10;;;19.90;99.90;;;;;;5092207;28;20609;-68
2022/07/16 06:26:46;;;;;;;5.53;2.20;;;20.00;99.90;;;;;;5092348;28;20205;-67
2022/07/16 06:29:13;;;;;;;4.37;2.13;;;20.00;99.90;;;;;;5091763;28;20203;-68
2022/07/16 06:31:40;;;;;;;5.13;2.40;;;20.00;99.90;;;;;;5091688;28;20297;-67
2022/07/16 06:34:09;;;;;;;4.53;2.20;;;20.10;99.90;;;;;;5091609;28;20204;-68
2022/07/16 06:36:36;;;;;;;4.23;2.20;;;20.10;99.90;;;;;;5091777;28;20224;-67
2022/07/16 06:39:03;;;;;;;6.93;2.40;;;20.20;99.90;;;;;;5094479;28;20713;-68
2022/07/16 06:41:30;;;;;;;3.70;2.10;;;20.30;99.90;;;;;;5112603;28;20206;-69
2022/07/16 06:43:57;;;;;;;5.90;2.70;;;20.40;99.90;;;;;;5112224;28;20249;-67
2022/07/16 06:46:24;;;;;;;4.40;3.03;;;20.50;99.90;;;;;;5112303;28;20328;-67
2022/07/16 06:48:51;;;;;;;2.40;2.00;;;20.60;99.90;;;;;;5109637;28;20232;-67
2022/07/16 06:51:19;;;;;;;4.10;2.50;;;20.60;99.90;;;;;;5108568;28;20652;-69
2022/07/16 06:53:46;;;;;;;3.20;2.57;;;20.80;99.90;;;;;;5110978;28;20561;-68
2022/07/16 06:56:13;;;;;;;2.63;2.20;;;20.90;99.90;;;;;;5111620;28;20263;-67
2022/07/16 06:58:40;;;;;;;4.83;2.37;;;21.00;99.90;;;;;;5108416;28;20207;-67
2022/07/16 07:01:08;;;;;;;2.97;2.27;;;21.10;99.90;;;;;;5101292;28;20559;-66
2022/07/16 07:03:35;;;;;;;2.53;2.10;;;21.20;99.90;;;;;;5091795;28;20208;-68
2022/07/16 07:06:02;;;;;;;5.30;2.20;;;21.30;99.90;;;;;;5091014;28;20284;-67
2022/07/16 07:08:30;;;;;;;6.00;2.00;;;21.40;99.90;;;;;;5091208;28;20208;-66
2022/07/16 07:10:59;;;;;;;2.33;1.90;;;21.50;99.90;;;;;;5091950;28;20199;-70
2022/07/16 07:13:27;;;;;;;3.27;1.90;;;21.60;99.90;;;;;;5091838;28;20203;-69
2022/07/16 07:15:53;;;;;;;5.10;2.20;;;21.70;99.90;;;;;;5091036;28;20265;-68
2022/07/16 07:18:20;;;;;;;4.00;2.10;;;21.70;99.90;;;;;;5094349;28;20668;-67
2022/07/16 07:20:47;;;;;;;2.23;1.80;;;21.80;99.90;;;;;;5105197;28;20675;-68
2022/07/16 07:23:14;;;;;;;2.37;1.70;;;21.90;99.90;;;;;;5091435;28;20607;-68
2022/07/16 07:25:42;;;;;;;4.70;2.07;;;21.90;99.90;;;;;;5091177;28;20232;-68
2022/07/16 07:28:09;;;;;;;5.00;2.10;;;22.00;99.90;;;;;;5091143;28;20197;-68
2022/07/16 07:30:36;;;;;;;2.70;1.63;;;22.10;99.90;;;;;;5105936;28;20283;-68
2022/07/16 07:33:03;;;;;;;2.97;2.00;;;22.10;99.90;;;;;;5127281;28;20226;-68
2022/07/16 07:35:30;;;;;;;2.57;1.50;;;22.10;99.90;;;;;;5112222;28;20221;-69
2022/07/16 07:37:58;;;;;;;3.13;2.00;;;22.10;99.90;;;;;;5093218;28;20309;-67
2022/07/16 07:40:25;;;;;;;4.97;1.87;;;22.10;99.90;;;;;;5092755;28;20302;-69
2022/07/16 07:42:54;;;;;;;2.37;1.97;;;22.20;99.90;;;;;;5100638;28;20212;-68
2022/07/16 07:45:21;;;;;;;3.53;2.23;;;22.20;99.90;;;;;;5109979;28;20210;-68
2022/07/16 07:47:49;;;;;;;3.23;1.90;;;22.20;99.90;;;;;;5100895;28;20231;-67
2022/07/16 07:50:15;;;;;;;2.40;1.73;;;22.10;99.90;;;;;;5101305;28;20209;-69
2022/07/16 07:52:42;;;;;;;2.73;1.80;;;22.20;99.90;;;;;;5123595;27;20628;-67
2022/07/16 07:55:09;;;;;;;3.07;1.97;;;22.20;99.90;;;;;;5099419;27;20745;-66
2022/07/16 07:57:36;;;;;;;2.87;1.77;;;22.20;99.90;;;;;;5110180;27;20316;-67
2022/07/16 08:00:07;;;;;;;3.77;1.70;;;22.30;99.90;;;;;;5101441;27;20313;-65
2022/07/16 08:02:34;;;;;;;2.40;1.50;;;22.30;99.90;;;;;;5094609;28;20603;-65
2022/07/16 08:05:01;;;;;;;3.30;1.73;;;22.40;99.90;;;;;;5094596;28;20312;-66
2022/07/16 08:07:28;;;;;;;2.33;1.73;;;22.40;99.90;;;;;;5094340;28;20330;-67
2022/07/16 08:09:54;;;;;;;2.93;1.87;;;22.60;99.90;;;;;;5094152;28;20253;-67
2022/07/16 08:12:21;;;;;;;3.90;1.87;;;22.70;99.90;;;;;;5094664;28;20214;-68
2022/07/16 08:14:48;;;;;;;2.30;1.90;;;22.80;99.90;;;;;;5094613;28;20217;-67
2022/07/16 08:17:16;;;;;;;3.20;1.80;;;22.90;99.90;;;;;;5094724;28;20312;-68
2022/07/16 08:19:43;;;;;;;2.73;2.00;;;23.00;99.90;;;;;;5094487;28;20207;-67
2022/07/16 08:22:10;;;;;;;4.53;1.73;;;23.10;99.90;;;;;;5094680;28;20214;-67
2022/07/16 08:27:21;;;;;;;3.33;1.60;;;23.20;99.90;;;;;;5094364;28;20304;-66
2022/07/16 08:29:48;;;;;;;2.10;1.40;;;23.20;99.90;;;;;;5094270;28;20302;-67
2022/07/16 08:32:16;;;;;;;2.50;1.67;;;23.30;99.90;;;;;;5094526;28;20301;-67
2022/07/16 08:34:44;;;;;;;2.03;1.47;;;23.40;99.90;;;;;;5094293;28;20199;-67
2022/07/16 08:37:12;;;;;;;3.17;1.70;;;23.40;99.90;;;;;;5094338;28;20227;-67
2022/07/16 08:39:40;;;;;;;4.13;2.93;;;23.40;99.90;;;;;;5094150;28;20776;-66
2022/07/16 08:42:08;;;;;;;3.83;2.27;;;23.40;99.90;;;;;;5094370;28;20211;-67
2022/07/16 08:44:38;;;;;;;2.87;2.00;;;23.50;99.90;;;;;;5093803;28;20302;-68
2022/07/16 08:47:06;;;;;;;2.17;1.83;;;23.50;99.90;;;;;;5094118;28;20756;-65
2022/07/16 08:49:36;;;;;;;6.23;1.80;;;23.60;99.90;;;;;;5093653;28;20209;-66
2022/07/16 08:52:03;;;;;;;2.37;1.80;;;23.70;99.90;;;;;;5093983;28;20730;-68
2022/07/16 08:54:31;;;;;;;3.87;1.70;;;23.80;99.90;;;;;;5093341;28;20207;-67
2022/07/16 08:56:59;;;;;;;3.30;1.70;;;23.80;99.90;;;;;;5093879;28;20207;-67
2022/07/16 08:59:27;;;;;;;2.10;1.52;;;23.90;99.90;;;;;;5093764;28;20207;-66
2022/07/16 09:01:54;;;;;;;2.83;1.55;;;24.00;99.90;;;;;;5093868;28;20540;-67
2022/07/16 09:04:21;;;;;;;2.97;1.80;;;24.10;99.90;;;;;;5093669;28;20634;-68
2022/07/16 09:06:50;;;;;;;4.10;1.50;;;24.20;99.90;;;;;;5093428;28;20245;-67
2022/07/16 09:09:17;;;;;;;4.78;1.70;;;24.20;99.90;;;;;;5093936;28;20526;-68
2022/07/16 09:11:46;;;;;;;2.25;1.70;;;24.30;99.90;;;;;;5093840;28;20206;-65
2022/07/16 09:14:14;;;;;;;5.10;2.40;;;24.30;99.90;;;;;;5093205;28;20199;-67
2022/07/16 09:16:43;;;;;;;2.37;2.07;;;24.40;99.90;;;;;;5092997;28;20210;-68
2022/07/16 09:19:12;;;;;;;3.87;2.47;;;24.40;99.90;;;;;;5093436;28;20321;-67
2022/07/16 09:22:00;;;;;;;3.27;1.57;;;24.30;99.90;;;;;;5092993;28;20209;-66
2022/07/16 09:24:40;;;;;;;2.50;1.60;;;24.20;99.90;;;;;;5093099;28;20622;-67
2022/07/16 09:27:09;;;;;;;2.67;1.60;;;24.10;99.90;;;;;;5093247;28;20227;-67
2022/07/16 09:29:44;;;;;;;4.77;2.97;;;23.90;99.90;;;;;;5092947;28;20247;-67
2022/07/16 09:32:11;;;;;;;4.10;1.63;;;23.80;99.90;;;;;;5093082;28;20235;-67
2022/07/16 09:34:39;;;;;;;3.13;1.70;;;23.90;99.90;;;;;;5092467;28;20206;-67
2022/07/16 09:37:08;;;;;;;1.73;1.53;;;23.90;99.90;;;;;;5092565;28;20211;-67
2022/07/16 09:39:36;;;;;;;2.87;1.50;;;23.90;98.70;;;;;;5092446;28;20253;-66
2022/07/16 09:42:04;;;;;;;4.57;1.80;;;23.90;99.30;;;;;;5092819;28;20210;-67
2022/07/16 09:44:33;;;;;;;5.17;1.50;;;24.00;99.30;;;;;;5092685;28;20668;-68
2022/07/16 09:47:04;;;;;;;2.07;1.60;;;24.00;99.50;;;;;;5093119;28;20246;-66
2022/07/16 09:49:32;;;;;;;2.30;1.57;;;24.00;98.60;;;;;;5092542;28;20295;-67
2022/07/16 09:51:59;;;;;;;2.57;1.50;;;23.90;98.30;;;;;;5092709;28;20285;-67
2022/07/16 09:54:30;;;;;;;3.97;1.80;;;23.90;98.50;;;;;;5092342;28;20297;-67
2022/07/16 09:57:08;;;;;;;3.80;1.70;;;24.00;97.80;;;;;;5092949;28;20281;-67
2022/07/16 09:59:37;;;;;;;4.53;2.00;;;24.00;98.70;;;;;;5092477;28;20211;-67
2022/07/16 10:02:04;;;;;;;2.13;1.50;;;24.20;99.60;;;;;;5092855;28;20714;-67
2022/07/16 10:04:31;;;;;;;5.78;3.67;;;24.30;99.20;;;;;;5092570;28;20275;-68
2022/07/16 10:06:59;;;;;;;3.83;1.73;;;24.30;98.70;;;;;;5091749;28;20270;-67
2022/07/16 10:09:28;;;;;;;4.07;2.00;;;24.20;97.90;;;;;;5092237;28;20235;-69
2022/07/16 10:11:57;;;;;;;3.25;1.80;;;24.00;98.20;;;;;;5092747;28;20637;-67
2022/07/16 10:14:25;;;;;;;2.83;1.90;;;23.90;98.10;;;;;;5092825;28;20205;-67
2022/07/16 10:16:57;;;;;;;2.17;1.80;;;23.80;98.30;;;;;;5092210;28;20208;-68
2022/07/16 10:19:25;;;;;;;2.50;1.80;;;23.80;99.40;;;;;;5091981;28;20298;-68
2022/07/16 10:22:18;;;;;;;2.78;2.05;;;23.80;99.80;;;;;;5091863;28;20241;-67
2022/07/16 10:24:48;;;;;;;4.40;2.40;;;23.80;99.80;;;;;;5092019;28;20305;-68
2022/07/16 10:27:20;;;;;;;2.53;2.10;;;23.80;98.90;;;;;;5091797;28;20223;-67
2022/07/16 10:29:47;;;;;;;2.17;1.83;;;23.80;98.40;;;;;;5091914;28;20260;-68
2022/07/16 10:32:29;;;;;;;2.43;1.80;;;23.80;99.30;;;;;;5092200;28;20258;-67
2022/07/16 10:34:56;;;;;;;3.17;1.63;;;23.80;99.90;;;;;;5091791;28;20284;-67
2022/07/16 10:37:28;;;;;;;2.90;1.80;;;23.90;99.90;;;;;;5091620;28;20207;-67
2022/07/16 10:40:06;;;;;;;3.00;1.70;;;23.90;99.70;;;;;;5091888;28;20256;-68
2022/07/16 10:42:34;;;;;;;2.50;1.77;;;23.90;99.90;;;;;;5091989;28;20625;-68
2022/07/16 10:45:01;;;;;;;2.90;1.80;;;24.00;99.70;;;;;;5092078;28;20241;-69
2022/07/16 10:47:49;;;;;;;3.30;1.70;;;24.00;99.80;;;;;;5091590;28;20302;-68
2022/07/16 10:50:21;;;;;;;4.17;1.80;;;24.10;98.60;;;;;;5091888;28;20191;-68
2022/07/16 10:52:50;;;;;;;3.03;1.90;;;24.10;99.30;;;;;;5092209;28;20290;-67
2022/07/16 10:55:36;;;;;;;3.33;1.90;;;24.10;98.40;;;;;;5091682;28;20214;-67
2022/07/16 10:58:04;;;;;;;4.50;2.60;;;24.10;98.30;;;;;;5091719;28;20282;-68
2022/07/16 11:00:31;;;;;;;3.47;2.40;;;24.20;98.00;;;;;;5092088;28;20694;-68
2022/07/16 11:03:00;;;;;;;2.37;1.80;;;24.10;97.90;;;;;;5091742;28;20290;-70
2022/07/16 11:05:29;;;;;;;2.07;1.60;;;24.20;97.90;;;;;;5091687;28;20223;-70
2022/07/16 11:08:07;;;;;;;2.97;1.87;;;24.20;97.70;;;;;;5092657;28;20637;-69
2022/07/16 11:10:39;;;;;;;2.23;1.77;;;24.30;97.70;;;;;;5090711;28;20204;-68
2022/07/16 11:13:13;;;;;;;4.65;1.80;;;24.30;96.70;;;;;;5090907;28;20214;-69
2022/07/16 11:15:40;;;;;;;2.28;1.77;;;24.30;96.40;;;;;;5101594;28;20195;-71
2022/07/16 11:18:15;;;;;;;3.23;1.60;;;24.30;96.50;;;;;;5103228;28;20227;-71
2022/07/16 11:20:43;;;;;;;2.40;1.67;;;24.30;96.10;;;;;;5097137;28;20283;-72
2022/07/16 11:23:11;;;;;;;2.97;1.90;;;24.30;94.70;;;;;;5105575;28;20539;-69
2022/07/16 11:25:54;;;;;;;2.70;1.97;;;24.30;94.60;;;;;;5101907;28;20214;-71
2022/07/16 11:28:21;;;;;;;2.10;1.70;;;24.30;94.70;;;;;;5110731;28;20309;-73
2022/07/16 11:31:01;;;;;;;2.83;1.90;;;24.50;94.80;;;;;;5105302;28;20205;-69
2022/07/16 11:33:32;;;;;;;3.42;1.70;;;24.60;95.20;;;;;;5102994;28;20664;-69
2022/07/16 11:36:05;;;;;;;2.80;1.90;;;24.70;95.20;;;;;;5103265;27;20287;-69
2022/07/16 11:38:32;;;;;;;3.13;2.17;;;24.70;95.00;;;;;;5116059;28;20553;-69
2022/07/16 11:41:01;;;;;;;3.47;2.17;;;24.80;95.10;;;;;;5105765;28;20206;-70
2022/07/16 11:43:28;;;;;;;9.43;6.90;;;24.90;94.40;;;;;;5095332;28;20205;-68
2022/07/16 11:45:55;;;;;;;4.63;3.20;;;24.90;94.60;;;;;;5095162;28;20213;-72
2022/07/16 11:48:22;;;;;;;2.10;1.90;;;24.90;94.50;;;;;;5127578;27;20765;-69
2022/07/16 11:50:49;;;;;;;3.78;1.98;;;24.90;94.50;;;;;;5136723;27;20249;-70
2022/07/16 11:53:28;;;;;;;1.70;1.60;;;24.90;94.50;;;;;;5133750;27;20201;-69
2022/07/16 11:55:55;;;;;;;3.67;1.85;;;24.90;94.10;;;;;;5124832;27;20195;-69
2022/07/16 11:58:23;;;;;;;1.80;1.67;;;24.90;94.50;;;;;;5112746;28;20321;-68
2022/07/16 12:00:50;;;;;;;2.93;1.90;;;24.90;94.50;;;;;;5101392;28;20701;-70
2022/07/16 12:03:18;;;;;;;3.03;1.83;;;24.90;94.80;;;;;;5127259;27;20227;-70
2022/07/16 12:05:45;;;;;;;3.35;1.90;;;25.00;94.60;;;;;;5115093;28;20234;-70
2022/07/16 12:08:12;;;;;;;2.88;2.10;;;25.00;94.30;;;;;;5113542;28;20282;-69
2022/07/16 12:10:39;;;;;;;2.28;1.77;;;25.10;93.70;;;;;;5126312;27;20288;-69
2022/07/16 12:13:09;;;;;;;3.72;1.70;;;25.10;93.80;;;;;;5132873;27;20298;-69
2022/07/16 12:15:52;;;;;;;4.73;1.80;;;25.10;93.70;;;;;;5094774;28;20221;-68
2022/07/16 12:18:20;;;;;;;2.85;1.90;;;24.80;93.20;;;;;;5094962;28;20215;-71
2022/07/16 12:20:47;;;;;;;2.20;1.70;;;24.70;93.30;;;;;;5118057;27;20282;-70
2022/07/16 12:23:14;;;;;;;2.65;1.75;;;24.60;93.30;;;;;;5114584;28;20293;-69
2022/07/16 12:25:42;;;;;;;2.08;1.60;;;24.60;93.60;;;;;;5115172;28;20673;-70
2022/07/16 12:28:10;;;;;;;1.95;1.77;;;24.50;94.20;;;;;;5103734;27;20282;-70
2022/07/16 12:30:40;;;;;;;3.57;1.97;;;24.60;94.30;;;;;;5095166;28;20209;-70
2022/07/16 12:33:23;;;;;;;3.73;1.80;;;24.70;94.30;;;;;;5094249;28;20267;-69
2022/07/16 12:35:51;;;;;;;2.75;1.85;;;24.70;94.50;;;;;;5094736;28;20205;-71
2022/07/16 12:38:39;;;;;;;5.88;1.95;;;24.80;95.00;;;;;;5097316;27;20326;-70
2022/07/16 12:41:09;;;;;;;3.70;1.80;;;24.90;94.20;;;;;;5130420;27;20291;-69
2022/07/16 12:43:36;;;;;;;3.40;1.93;;;24.80;94.30;;;;;;5135473;27;20198;-70
2022/07/16 12:46:03;;;;;;;4.90;1.80;;;24.90;94.60;;;;;;5124936;27;20225;-70
2022/07/16 12:48:32;;;;;;;3.13;1.80;;;24.90;94.20;;;;;;5101386;28;20621;-69
2022/07/16 12:50:59;;;;;;;2.47;1.70;;;24.90;94.50;;;;;;5108727;28;20202;-71
2022/07/16 12:53:26;;;;;;;2.45;1.95;;;24.90;94.10;;;;;;5134459;27;20675;-70
2022/07/16 12:58:48;;;;;;;4.18;2.08;;;25.00;94.80;;;;;;5134896;27;20230;-69
2022/07/16 13:01:16;;;;;;;2.83;1.80;;;25.10;95.00;;;;;;5119431;27;20226;-69
2022/07/16 13:03:44;;;;;;;4.22;1.80;;;25.10;93.80;;;;;;5093962;28;20239;-68
2022/07/16 13:06:11;;;;;;;2.22;1.60;;;25.20;94.10;;;;;;5112375;28;20359;-68
2022/07/16 13:08:38;;;;;;;3.88;1.70;;;25.20;94.60;;;;;;5114487;28;20213;-70
2022/07/16 13:11:06;;;;;;;2.20;1.77;;;25.30;94.20;;;;;;5113921;28;20304;-69
2022/07/16 13:13:33;;;;;;;3.42;2.05;;;25.30;94.00;;;;;;5120811;27;20621;-69
2022/07/16 13:16:00;;;;;;;2.60;1.95;;;25.40;93.30;;;;;;5120942;27;20342;-71
2022/07/16 13:18:27;;;;;;;2.85;1.90;;;25.40;93.60;;;;;;5093662;28;20229;-69
2022/07/16 13:20:55;;;;;;;2.22;1.60;;;25.40;93.00;;;;;;5093143;28;20210;-69
2022/07/16 13:23:22;;;;;;;2.03;1.60;;;25.30;93.00;;;;;;5109091;28;20284;-69
2022/07/16 13:25:49;;;;;;;2.00;1.80;;;25.20;93.40;;;;;;5093218;28;20208;-69
2022/07/16 13:28:17;;;;;;;3.83;1.73;;;25.10;93.80;;;;;;5116078;27;20627;-69
2022/07/16 13:30:44;;;;;;;3.65;2.35;;;25.10;94.10;;;;;;5099092;27;20209;-70
2022/07/16 13:33:11;;;;;;;3.33;2.40;;;25.10;94.50;;;;;;5102164;28;20260;-68
2022/07/16 13:35:38;;;;;;;3.95;2.47;;;25.10;94.40;;;;;;5113855;28;20201;-68
2022/07/16 13:38:07;;;;;;;3.38;2.20;;;25.10;93.70;;;;;;5110159;28;20218;-68
2022/07/16 13:40:34;;;;;;;2.87;2.00;;;25.10;93.60;;;;;;5112491;28;20266;-69
2022/07/16 13:43:02;;;;;;;2.87;2.07;;;25.10;93.60;;;;;;5104095;28;20284;-68
2022/07/16 13:45:29;;;;;;;2.97;1.90;;;25.10;93.70;;;;;;5105530;27;20727;-68
2022/07/16 13:47:57;;;;;;;1.95;1.60;;;25.10;94.00;;;;;;5113135;28;20647;-68
2022/07/16 13:50:24;;;;;;;2.13;1.70;;;25.10;93.70;;;;;;5115698;27;20206;-68
2022/07/16 13:52:51;;;;;;;2.92;1.80;;;25.00;93.30;;;;;;5113489;28;20290;-68
2022/07/16 13:55:19;;;;;;;2.65;1.83;;;24.90;93.60;;;;;;5110201;28;20719;-69
2022/07/16 14:00:31;;;;;;;6.73;2.50;;;24.90;94.20;;;;;;5128391;27;20774;-68
2022/07/16 14:02:58;;;;;;;2.27;1.80;;;24.90;93.50;;;;;;5099373;28;20710;-69
2022/07/16 14:05:25;;;;;;;3.83;2.30;;;24.80;93.50;;;;;;5091750;28;20361;-69
2022/07/16 14:07:52;;;;;;;1.85;1.70;;;24.80;94.00;;;;;;5094786;28;20199;-69
2022/07/16 14:10:21;;;;;;;4.65;1.70;;;24.90;94.30;;;;;;5092086;28;20286;-69
2022/07/16 14:12:48;;;;;;;2.08;1.70;;;25.00;93.10;;;;;;5099101;28;20253;-70
2022/07/16 14:15:15;;;;;;;3.97;2.30;;;25.00;93.30;;;;;;5123087;27;20201;-70
2022/07/16 14:17:42;;;;;;;3.63;2.00;;;24.90;93.50;;;;;;5112590;28;20208;-69
2022/07/16 14:20:12;;;;;;;3.42;1.88;;;24.80;93.20;;;;;;5122987;27;20220;-69
2022/07/16 14:22:39;;;;;;;3.67;1.90;;;24.80;93.50;;;;;;5133213;27;20244;-71
2022/07/16 14:25:07;;;;;;;7.07;1.80;;;24.80;93.70;;;;;;5119478;27;20649;-69
2022/07/16 14:27:36;;;;;;;5.22;1.85;;;24.80;93.40;;;;;;5126585;27;20278;-70
2022/07/16 14:30:03;;;;;;;3.17;2.00;;;24.80;93.20;;;;;;5103090;28;20210;-70
2022/07/16 14:32:30;;;;;;;2.93;1.90;;;24.80;93.30;;;;;;5092102;28;20262;-72
2022/07/16 14:34:57;;;;;;;3.75;2.13;;;24.70;93.30;;;;;;5091632;28;20210;-71
2022/07/16 14:37:24;;;;;;;3.07;1.90;;;24.70;93.20;;;;;;5092032;28;20261;-71
2022/07/16 14:39:50;;;;;;;3.67;2.13;;;24.70;92.40;;;;;;5091832;28;20619;-72
2022/07/16 14:42:17;;;;;;;5.07;2.53;;;24.60;92.80;;;;;;5091919;28;20260;-71
2022/07/16 14:44:46;;;;;;;4.47;2.70;;;24.70;93.40;;;;;;5091857;28;20231;-70
2022/07/16 14:47:12;;;;;;;4.97;2.90;;;24.70;93.70;;;;;;5092120;28;20672;-71
2022/07/16 14:49:39;;;;;;;3.37;2.10;;;24.80;93.40;;;;;;5092126;28;20634;-70
2022/07/16 14:52:06;;;;;;;2.10;1.73;;;24.80;92.30;;;;;;5091777;28;20681;-68
2022/07/16 14:54:33;;;;;;;2.10;1.87;;;24.90;92.60;;;;;;5091667;28;20205;-68
2022/07/16 14:57:00;;;;;;;2.53;1.90;;;24.70;93.10;;;;;;5091575;28;20746;-69
2022/07/16 14:59:27;;;;;;;4.90;2.10;;;24.60;93.60;;;;;;5101889;28;20601;-69
2022/07/16 15:01:55;;;;;;;2.95;1.98;;;24.60;93.40;;;;;;5125664;28;20204;-69
2022/07/16 15:04:22;;;;;;;3.03;1.80;;;24.50;93.20;;;;;;5111297;27;20313;-69
2022/07/16 15:06:49;;;;;;;1.88;1.50;;;24.60;93.20;;;;;;5099868;28;20224;-70
2022/07/16 15:09:16;;;;;;;5.97;3.95;;;24.60;92.70;;;;;;5112191;28;20215;-71
2022/07/16 15:11:43;;;;;;;3.23;1.83;;;24.60;92.40;;;;;;5097877;28;20210;-69
2022/07/16 15:14:10;;;;;;;3.28;1.75;;;24.60;92.10;;;;;;5091549;28;20210;-71
2022/07/16 15:16:37;;;;;;;7.03;1.87;;;24.50;92.40;;;;;;5091652;28;20296;-71
2022/07/16 15:19:06;;;;;;;3.20;1.83;;;24.50;92.90;;;;;;5091212;28;20288;-70
2022/07/16 15:21:32;;;;;;;6.03;1.90;;;24.50;93.40;;;;;;5104550;28;20297;-69
2022/07/16 15:23:59;;;;;;;3.87;2.17;;;24.60;93.50;;;;;;5097425;28;20823;-69
2022/07/16 15:26:26;;;;;;;3.07;1.80;;;24.60;93.80;;;;;;5091921;28;20641;-69
2022/07/16 15:28:53;;;;;;;2.40;1.80;;;24.60;93.90;;;;;;5091602;28;20203;-69